NKS100 KFLL-TNCM
Flight info
| Callsign | NKS100 |
|---|---|
| Flight time | N/A |
| Altitude | 35000 |
| Route | SNAPR2 SUMAC Y421 HAGIT Y290 SLUGO |
| Aircraft | A320/M-SDE3FGHIRWY/LB1 |
Departure
| Time | 2026-05-03 21:03 |
|---|---|
| Airport | Fort Lauderdale Hollywood International Airport (KFLL) |
Arrival
| Time | N/A |
|---|---|
| Airport | Princess Juliana International Airport (TNCM) |
| Time | Latitude | Longitude | Altitude | Speed | Heading |
|---|---|---|---|---|---|
| 2026-05-03 20:15 | 26.06888 | -80.14474 | 17 ft | 0 kts | 2° |
| 2026-05-03 20:28 | 26.06877 | -80.14475 | 19 ft | 4 kts | 1° |
| 2026-05-03 20:28 | 26.06850 | -80.14475 | 19 ft | 4 kts | 360° |
| 2026-05-03 20:28 | 26.06823 | -80.14475 | 18 ft | 4 kts | 357° |
| 2026-05-03 20:28 | 26.06796 | -80.14473 | 18 ft | 4 kts | 352° |
| 2026-05-03 20:29 | 26.06770 | -80.14467 | 20 ft | 4 kts | 335° |
| 2026-05-03 20:29 | 26.06753 | -80.14452 | 19 ft | 2 kts | 274° |
| 2026-05-03 20:29 | 26.06753 | -80.14450 | 17 ft | 0 kts | 270° |
| 2026-05-03 20:32 | 26.06753 | -80.14464 | 18 ft | 6 kts | 270° |
| 2026-05-03 20:32 | 26.06760 | -80.14535 | 17 ft | 11 kts | 282° |
| 2026-05-03 20:32 | 26.06768 | -80.14624 | 16 ft | 12 kts | 272° |
| 2026-05-03 20:32 | 26.06767 | -80.14719 | 18 ft | 12 kts | 269° |
| 2026-05-03 20:33 | 26.06766 | -80.14806 | 21 ft | 11 kts | 269° |
| 2026-05-03 20:33 | 26.06767 | -80.14888 | 22 ft | 11 kts | 270° |
| 2026-05-03 20:33 | 26.06767 | -80.14974 | 22 ft | 12 kts | 270° |
| 2026-05-03 20:33 | 26.06768 | -80.15071 | 22 ft | 12 kts | 270° |
| 2026-05-03 20:34 | 26.06760 | -80.15110 | 23 ft | 8 kts | 239° |
| 2026-05-03 20:34 | 26.06715 | -80.15142 | 24 ft | 8 kts | 215° |
| 2026-05-03 20:34 | 26.06696 | -80.15193 | 26 ft | 7 kts | 265° |
| 2026-05-03 20:34 | 26.06696 | -80.15248 | 26 ft | 7 kts | 270° |
| 2026-05-03 20:35 | 26.06696 | -80.15305 | 26 ft | 8 kts | 270° |
| 2026-05-03 20:35 | 26.06697 | -80.15368 | 26 ft | 9 kts | 271° |
| 2026-05-03 20:35 | 26.06697 | -80.15449 | 26 ft | 12 kts | 270° |
| 2026-05-03 20:35 | 26.06698 | -80.15552 | 24 ft | 10 kts | 270° |
| 2026-05-03 20:36 | 26.06698 | -80.15605 | 24 ft | 4 kts | 270° |
| 2026-05-03 20:37 | 26.06698 | -80.15612 | 24 ft | 2 kts | 270° |
| 2026-05-03 20:37 | 26.06698 | -80.15613 | 24 ft | 0 kts | 270° |
| 2026-05-03 20:45 | 26.06698 | -80.15637 | 23 ft | 5 kts | 270° |
| 2026-05-03 20:45 | 26.06698 | -80.15664 | 23 ft | 2 kts | 270° |
| 2026-05-03 20:45 | 26.06698 | -80.15668 | 23 ft | 2 kts | 270° |
| 2026-05-03 20:45 | 26.06698 | -80.15673 | 23 ft | 0 kts | 270° |
| 2026-05-03 20:47 | 26.06698 | -80.15674 | 23 ft | 1 kts | 270° |
| 2026-05-03 20:47 | 26.06698 | -80.15689 | 23 ft | 0 kts | 270° |
| 2026-05-03 20:48 | 26.06698 | -80.15693 | 23 ft | 0 kts | 270° |
| 2026-05-03 20:48 | 26.06698 | -80.15703 | 23 ft | 4 kts | 270° |
| 2026-05-03 20:49 | 26.06698 | -80.15719 | 23 ft | 0 kts | 270° |
| 2026-05-03 20:50 | 26.06698 | -80.15720 | 23 ft | 1 kts | 270° |
| 2026-05-03 20:50 | 26.06698 | -80.15728 | 23 ft | 0 kts | 270° |
| 2026-05-03 20:52 | 26.06698 | -80.15733 | 23 ft | 3 kts | 270° |
| 2026-05-03 20:52 | 26.06698 | -80.15746 | 23 ft | 3 kts | 270° |
| 2026-05-03 20:52 | 26.06698 | -80.15764 | 23 ft | 0 kts | 269° |
| 2026-05-03 20:53 | 26.06698 | -80.15766 | 23 ft | 2 kts | 269° |
| 2026-05-03 20:53 | 26.06698 | -80.15768 | 23 ft | 0 kts | 269° |
| 2026-05-03 20:56 | 26.06697 | -80.15781 | 22 ft | 4 kts | 261° |
| 2026-05-03 20:56 | 26.06684 | -80.15808 | 23 ft | 3 kts | 231° |
| 2026-05-03 20:56 | 26.06679 | -80.15813 | 23 ft | 0 kts | 222° |
| 2026-05-03 21:01 | 26.06678 | -80.15814 | 21 ft | 2 kts | 220° |
| 2026-05-03 21:01 | 26.06612 | -80.15819 | 20 ft | 9 kts | 160° |
| 2026-05-03 21:02 | 26.06589 | -80.15761 | 21 ft | 8 kts | 91° |
| 2026-05-03 21:02 | 26.06589 | -80.15757 | 21 ft | 0 kts | 91° |
| 2026-05-03 21:02 | 26.06587 | -80.15603 | 25 ft | 56 kts | 90° |
| 2026-05-03 21:03 | 26.06586 | -80.14902 | 20 ft | 122 kts | 90° |
| 2026-05-03 21:03 | 26.06582 | -80.13753 | 151 ft | 165 kts | 89° |
| 2026-05-03 21:03 | 26.06548 | -80.12459 | 641 ft | 170 kts | 88° |
| 2026-05-03 21:03 | 26.06569 | -80.11121 | 1121 ft | 178 kts | 86° |
| 2026-05-03 21:04 | 26.06618 | -80.09671 | 1695 ft | 190 kts | 89° |
| 2026-05-03 21:04 | 26.06648 | -80.08171 | 2294 ft | 207 kts | 89° |
| 2026-05-03 21:04 | 26.06671 | -80.06492 | 2675 ft | 228 kts | 89° |
| 2026-05-03 21:04 | 26.06692 | -80.04607 | 2981 ft | 253 kts | 89° |
| 2026-05-03 21:05 | 26.06710 | -80.02596 | 3388 ft | 271 kts | 89° |
| 2026-05-03 21:05 | 26.06727 | -80.00439 | 3868 ft | 280 kts | 90° |
| 2026-05-03 21:05 | 26.06727 | -79.98266 | 3982 ft | 281 kts | 90° |
| 2026-05-03 21:05 | 26.06708 | -79.96098 | 4003 ft | 281 kts | 91° |
| 2026-05-03 21:06 | 26.06682 | -79.93918 | 4006 ft | 281 kts | 91° |
| 2026-05-03 21:06 | 26.06656 | -79.91743 | 4006 ft | 281 kts | 90° |
| 2026-05-03 21:06 | 26.06632 | -79.89604 | 4044 ft | 282 kts | 91° |
| 2026-05-03 21:06 | 26.06606 | -79.87361 | 4773 ft | 286 kts | 91° |
| 2026-05-03 21:07 | 26.06581 | -79.85139 | 5544 ft | 291 kts | 91° |
| 2026-05-03 21:07 | 26.06512 | -79.82867 | 6285 ft | 295 kts | 98° |
| 2026-05-03 21:07 | 26.06174 | -79.80604 | 6986 ft | 300 kts | 102° |
| 2026-05-03 21:07 | 26.05813 | -79.78298 | 7839 ft | 305 kts | 101° |
| 2026-05-03 21:08 | 26.05451 | -79.75959 | 8779 ft | 309 kts | 101° |
| 2026-05-03 21:08 | 26.05084 | -79.73579 | 9520 ft | 314 kts | 101° |
| 2026-05-03 21:08 | 26.04711 | -79.71166 | 10178 ft | 320 kts | 101° |
| 2026-05-03 21:08 | 26.04319 | -79.68662 | 10374 ft | 341 kts | 101° |
| 2026-05-03 21:09 | 26.03895 | -79.65971 | 10621 ft | 359 kts | 101° |
| 2026-05-03 21:09 | 26.03418 | -79.63232 | 11153 ft | 364 kts | 104° |
| 2026-05-03 21:09 | 26.02824 | -79.60476 | 11754 ft | 368 kts | 106° |
| 2026-05-03 21:09 | 26.02160 | -79.57718 | 12348 ft | 371 kts | 108° |
| 2026-05-03 21:10 | 26.01463 | -79.54936 | 12844 ft | 375 kts | 108° |
| 2026-05-03 21:10 | 26.00765 | -79.52141 | 12971 ft | 376 kts | 108° |
| 2026-05-03 21:10 | 26.00070 | -79.49296 | 13002 ft | 376 kts | 107° |
| 2026-05-03 21:10 | 25.99400 | -79.46496 | 13001 ft | 375 kts | 107° |
| 2026-05-03 21:11 | 25.98728 | -79.43651 | 13001 ft | 375 kts | 107° |
| 2026-05-03 21:11 | 25.98078 | -79.40880 | 13002 ft | 376 kts | 107° |
| 2026-05-03 21:11 | 25.97380 | -79.38080 | 13497 ft | 378 kts | 111° |
| 2026-05-03 21:11 | 25.96446 | -79.35336 | 14079 ft | 379 kts | 114° |
| 2026-05-03 21:12 | 25.95496 | -79.32596 | 14591 ft | 382 kts | 114° |
| 2026-05-03 21:12 | 25.94536 | -79.29837 | 15086 ft | 385 kts | 114° |
| 2026-05-03 21:12 | 25.93562 | -79.27051 | 15606 ft | 388 kts | 114° |
| 2026-05-03 21:12 | 25.92580 | -79.24247 | 16088 ft | 391 kts | 114° |
| 2026-05-03 21:13 | 25.91591 | -79.21411 | 16597 ft | 394 kts | 114° |
| 2026-05-03 21:13 | 25.90602 | -79.18562 | 17094 ft | 398 kts | 114° |
| 2026-05-03 21:13 | 25.89600 | -79.15684 | 17598 ft | 401 kts | 114° |
| 2026-05-03 21:13 | 25.88575 | -79.12756 | 18097 ft | 404 kts | 114° |
| 2026-05-03 21:14 | 25.87562 | -79.09870 | 18540 ft | 407 kts | 115° |
| 2026-05-03 21:14 | 25.86521 | -79.06901 | 18973 ft | 410 kts | 115° |
| 2026-05-03 21:14 | 25.85483 | -79.03933 | 19392 ft | 413 kts | 115° |
| 2026-05-03 21:14 | 25.84450 | -79.00985 | 19809 ft | 416 kts | 115° |
| 2026-05-03 21:15 | 25.83383 | -78.97935 | 20221 ft | 420 kts | 115° |
| 2026-05-03 21:15 | 25.82328 | -78.94915 | 20652 ft | 422 kts | 115° |
| 2026-05-03 21:15 | 25.81262 | -78.91862 | 21055 ft | 425 kts | 115° |
| 2026-05-03 21:15 | 25.80188 | -78.88790 | 21441 ft | 428 kts | 115° |
| 2026-05-03 21:16 | 25.79103 | -78.85705 | 21826 ft | 431 kts | 115° |
| 2026-05-03 21:16 | 25.78000 | -78.82590 | 22204 ft | 435 kts | 115° |
| 2026-05-03 21:16 | 25.76891 | -78.79459 | 22581 ft | 438 kts | 115° |
| 2026-05-03 21:16 | 25.75778 | -78.76307 | 22954 ft | 441 kts | 115° |
| 2026-05-03 21:17 | 25.74642 | -78.73128 | 23317 ft | 443 kts | 118° |
| 2026-05-03 21:17 | 25.73741 | -78.71110 | 23551 ft | 441 kts | 124° |
| 2026-05-03 21:17 | 25.71499 | -78.67306 | 23956 ft | 441 kts | 129° |
| 2026-05-03 21:17 | 25.69766 | -78.64485 | 24285 ft | 443 kts | 129° |
| 2026-05-03 21:18 | 25.68028 | -78.61660 | 24603 ft | 446 kts | 129° |
| 2026-05-03 21:18 | 25.66273 | -78.58808 | 24919 ft | 448 kts | 129° |
| 2026-05-03 21:18 | 25.64514 | -78.55949 | 25235 ft | 450 kts | 129° |
| 2026-05-03 21:18 | 25.62747 | -78.53077 | 25553 ft | 452 kts | 129° |
| 2026-05-03 21:19 | 25.60971 | -78.50186 | 25873 ft | 455 kts | 129° |
| 2026-05-03 21:19 | 25.59196 | -78.47266 | 26193 ft | 458 kts | 127° |
| 2026-05-03 21:19 | 25.57700 | -78.44128 | 26478 ft | 467 kts | 117° |
| 2026-05-03 21:19 | 25.56624 | -78.40659 | 26787 ft | 474 kts | 109° |
| 2026-05-03 21:20 | 25.55752 | -78.37182 | 27081 ft | 476 kts | 109° |
| 2026-05-03 21:20 | 25.54856 | -78.33642 | 27375 ft | 478 kts | 109° |
| 2026-05-03 21:20 | 25.53938 | -78.30049 | 27665 ft | 480 kts | 110° |
| 2026-05-03 21:20 | 25.53019 | -78.26481 | 27973 ft | 483 kts | 110° |
| 2026-05-03 21:21 | 25.52105 | -78.22942 | 28260 ft | 485 kts | 110° |
| 2026-05-03 21:21 | 25.51167 | -78.19305 | 28556 ft | 488 kts | 110° |
| 2026-05-03 21:21 | 25.50237 | -78.15689 | 28855 ft | 490 kts | 110° |
| 2026-05-03 21:21 | 25.49303 | -78.12051 | 29169 ft | 492 kts | 110° |
| 2026-05-03 21:22 | 25.48680 | -78.09625 | 29368 ft | 494 kts | 110° |
| 2026-05-03 21:22 | 25.47739 | -78.05962 | 29669 ft | 496 kts | 110° |
| 2026-05-03 21:22 | 25.46793 | -78.02287 | 29963 ft | 499 kts | 110° |
| 2026-05-03 21:22 | 25.45834 | -77.98575 | 30230 ft | 501 kts | 110° |
| 2026-05-03 21:23 | 25.44875 | -77.94866 | 30488 ft | 502 kts | 110° |
| 2026-05-03 21:23 | 25.43918 | -77.91160 | 30883 ft | 500 kts | 110° |
| 2026-05-03 21:23 | 25.42965 | -77.87469 | 31240 ft | 500 kts | 110° |
| 2026-05-03 21:23 | 25.42007 | -77.83765 | 31586 ft | 500 kts | 110° |
| 2026-05-03 21:24 | 25.41048 | -77.80068 | 31908 ft | 500 kts | 110° |
| 2026-05-03 21:24 | 25.40082 | -77.76365 | 32246 ft | 500 kts | 110° |
| 2026-05-03 21:24 | 25.39102 | -77.72615 | 32582 ft | 501 kts | 110° |
| 2026-05-03 21:24 | 25.38137 | -77.68923 | 32917 ft | 501 kts | 110° |
| 2026-05-03 21:25 | 25.37167 | -77.65212 | 33251 ft | 501 kts | 110° |
| 2026-05-03 21:25 | 25.36204 | -77.61527 | 33581 ft | 502 kts | 110° |
| 2026-05-03 21:25 | 25.35231 | -77.57809 | 33898 ft | 502 kts | 110° |
| 2026-05-03 21:25 | 25.34263 | -77.54106 | 34206 ft | 502 kts | 110° |
| 2026-05-03 21:26 | 25.33293 | -77.50400 | 34470 ft | 502 kts | 110° |
| 2026-05-03 21:26 | 25.32324 | -77.46690 | 34724 ft | 502 kts | 110° |
| 2026-05-03 21:26 | 25.31352 | -77.42978 | 34954 ft | 503 kts | 110° |
| 2026-05-03 21:26 | 25.30374 | -77.39260 | 35023 ft | 503 kts | 110° |
| 2026-05-03 21:27 | 25.27639 | -77.32275 | 35030 ft | 491 kts | 128° |
| 2026-05-03 21:27 | 25.23928 | -77.25942 | 35031 ft | 490 kts | 129° |
| 2026-05-03 21:28 | 25.20218 | -77.19571 | 35032 ft | 490 kts | 128° |
| 2026-05-03 21:28 | 25.16531 | -77.13234 | 35031 ft | 490 kts | 128° |
| 2026-05-03 21:29 | 25.12844 | -77.06929 | 35025 ft | 489 kts | 129° |
| 2026-05-03 21:29 | 25.09149 | -77.00628 | 35034 ft | 490 kts | 128° |
| 2026-05-03 21:30 | 25.05452 | -76.94312 | 35018 ft | 490 kts | 128° |
| 2026-05-03 21:30 | 25.01743 | -76.87993 | 35032 ft | 490 kts | 128° |
| 2026-05-03 21:31 | 24.98045 | -76.81695 | 35038 ft | 490 kts | 128° |
| 2026-05-03 21:31 | 24.94338 | -76.75386 | 35043 ft | 490 kts | 128° |
| 2026-05-03 21:32 | 24.90634 | -76.69104 | 35046 ft | 490 kts | 128° |
| 2026-05-03 21:32 | 24.86918 | -76.62800 | 35047 ft | 490 kts | 128° |
| 2026-05-03 21:33 | 24.83181 | -76.56475 | 35047 ft | 490 kts | 128° |
| 2026-05-03 21:33 | 24.79454 | -76.50189 | 35038 ft | 490 kts | 128° |
| 2026-05-03 21:34 | 24.75732 | -76.43915 | 35041 ft | 490 kts | 128° |
| 2026-05-03 21:34 | 24.72018 | -76.37639 | 35043 ft | 490 kts | 128° |
| 2026-05-03 21:35 | 24.68299 | -76.31366 | 35029 ft | 489 kts | 128° |
| 2026-05-03 21:35 | 24.64576 | -76.25106 | 35040 ft | 489 kts | 128° |
| 2026-05-03 21:36 | 24.60851 | -76.18870 | 35044 ft | 488 kts | 128° |
| 2026-05-03 21:36 | 24.57126 | -76.12627 | 35038 ft | 488 kts | 127° |
| 2026-05-03 21:37 | 24.53512 | -76.06300 | 35043 ft | 489 kts | 126° |
| 2026-05-03 21:37 | 24.50012 | -75.99908 | 35044 ft | 489 kts | 125° |
| 2026-05-03 21:38 | 24.46494 | -75.93524 | 35043 ft | 488 kts | 126° |
| 2026-05-03 21:38 | 24.42902 | -75.87131 | 35043 ft | 488 kts | 126° |
| 2026-05-03 21:39 | 24.39353 | -75.80840 | 35040 ft | 488 kts | 126° |
| 2026-05-03 21:39 | 24.35756 | -75.74458 | 35031 ft | 488 kts | 126° |
| 2026-05-03 21:40 | 24.32191 | -75.68138 | 35024 ft | 488 kts | 126° |
| 2026-05-03 21:40 | 24.28620 | -75.61791 | 35032 ft | 488 kts | 126° |
| 2026-05-03 21:41 | 24.25054 | -75.55472 | 35041 ft | 488 kts | 126° |
| 2026-05-03 21:41 | 24.21486 | -75.49157 | 35044 ft | 487 kts | 126° |
| 2026-05-03 21:42 | 24.17909 | -75.42834 | 35044 ft | 487 kts | 126° |
| 2026-05-03 21:42 | 24.14334 | -75.36538 | 35041 ft | 487 kts | 126° |
| 2026-05-03 21:43 | 24.10737 | -75.30200 | 35045 ft | 487 kts | 126° |
| 2026-05-03 21:43 | 24.07170 | -75.23910 | 35042 ft | 486 kts | 126° |
| 2026-05-03 21:44 | 24.03595 | -75.17623 | 35041 ft | 486 kts | 126° |
| 2026-05-03 21:44 | 24.00023 | -75.11357 | 35040 ft | 486 kts | 126° |
| 2026-05-03 21:45 | 23.96441 | -75.05084 | 35032 ft | 486 kts | 126° |
| 2026-05-03 21:45 | 23.92859 | -74.98817 | 35031 ft | 486 kts | 126° |
| 2026-05-03 21:46 | 23.89285 | -74.92558 | 35031 ft | 486 kts | 126° |
| 2026-05-03 21:46 | 23.85705 | -74.86288 | 35032 ft | 486 kts | 126° |
| 2026-05-03 21:47 | 23.82115 | -74.80030 | 35033 ft | 486 kts | 126° |
| 2026-05-03 21:47 | 23.78501 | -74.73746 | 35034 ft | 486 kts | 127° |
| 2026-05-03 21:48 | 23.74906 | -74.67496 | 35033 ft | 486 kts | 126° |
| 2026-05-03 21:48 | 23.71319 | -74.61254 | 35037 ft | 486 kts | 126° |
| 2026-05-03 21:49 | 23.67712 | -74.54999 | 35039 ft | 486 kts | 127° |
| 2026-05-03 21:49 | 23.64112 | -74.48764 | 35043 ft | 486 kts | 127° |
| 2026-05-03 21:50 | 23.60507 | -74.42526 | 35042 ft | 486 kts | 127° |
| 2026-05-03 21:50 | 23.56907 | -74.36285 | 35048 ft | 486 kts | 126° |
| 2026-05-03 21:51 | 23.53886 | -74.31063 | 35028 ft | 486 kts | 126° |
| 2026-05-03 21:51 | 23.49683 | -74.23830 | 35048 ft | 486 kts | 126° |
| 2026-05-03 21:52 | 23.46663 | -74.18620 | 35051 ft | 486 kts | 126° |
| 2026-05-03 21:52 | 23.43060 | -74.12402 | 35051 ft | 486 kts | 126° |
| 2026-05-03 21:53 | 23.39445 | -74.06189 | 35050 ft | 486 kts | 126° |
| 2026-05-03 21:53 | 23.35826 | -73.99980 | 35046 ft | 485 kts | 126° |
| 2026-05-03 21:54 | 23.32183 | -73.93746 | 35048 ft | 485 kts | 126° |
| 2026-05-03 21:54 | 23.28563 | -73.87543 | 35051 ft | 485 kts | 126° |
| 2026-05-03 21:55 | 23.24951 | -73.81365 | 35055 ft | 485 kts | 126° |
| 2026-05-03 21:55 | 23.21325 | -73.75181 | 35049 ft | 485 kts | 126° |
| 2026-05-03 21:56 | 23.17700 | -73.68980 | 35046 ft | 484 kts | 126° |
| 2026-05-03 21:56 | 23.14079 | -73.62816 | 35055 ft | 484 kts | 126° |
| 2026-05-03 21:57 | 23.10436 | -73.56620 | 35059 ft | 483 kts | 126° |
| 2026-05-03 21:57 | 23.06829 | -73.50491 | 35060 ft | 482 kts | 126° |
| 2026-05-03 21:58 | 23.03223 | -73.44357 | 35059 ft | 482 kts | 126° |
| 2026-05-03 21:58 | 22.99604 | -73.38221 | 35057 ft | 481 kts | 126° |
| 2026-05-03 21:59 | 22.95974 | -73.32069 | 35035 ft | 491 kts | 126° |
| 2026-05-03 21:59 | 22.92221 | -73.25725 | 35037 ft | 506 kts | 126° |